sensor_id;sensor_type;location;lat;lon;timestamp;temperature;humidity
48208;DHT22;33997;53.278;9.708;2023-08-08T00:00:48;12.50;88.40
48208;DHT22;33997;53.278;9.708;2023-08-08T00:03:14;12.50;88.50
48208;DHT22;33997;53.278;9.708;2023-08-08T00:05:39;12.60;88.30
48208;DHT22;33997;53.278;9.708;2023-08-08T00:08:05;12.60;88.40
48208;DHT22;33997;53.278;9.708;2023-08-08T00:10:31;12.60;88.30
48208;DHT22;33997;53.278;9.708;2023-08-08T00:12:57;12.70;88.40
48208;DHT22;33997;53.278;9.708;2023-08-08T00:15:22;12.60;88.70
48208;DHT22;33997;53.278;9.708;2023-08-08T00:17:48;12.60;88.60
48208;DHT22;33997;53.278;9.708;2023-08-08T00:20:13;12.70;88.80
48208;DHT22;33997;53.278;9.708;2023-08-08T00:22:39;12.60;88.90
48208;DHT22;33997;53.278;9.708;2023-08-08T00:25:05;12.60;88.90
48208;DHT22;33997;53.278;9.708;2023-08-08T00:27:30;12.60;89.10
48208;DHT22;33997;53.278;9.708;2023-08-08T00:29:56;12.60;89.20
48208;DHT22;33997;53.278;9.708;2023-08-08T00:32:21;12.60;89.40
48208;DHT22;33997;53.278;9.708;2023-08-08T00:34:47;12.60;89.40
48208;DHT22;33997;53.278;9.708;2023-08-08T00:37:12;12.60;89.80
48208;DHT22;33997;53.278;9.708;2023-08-08T00:39:37;12.60;89.70
48208;DHT22;33997;53.278;9.708;2023-08-08T00:42:03;12.60;89.70
48208;DHT22;33997;53.278;9.708;2023-08-08T00:44:29;12.60;90.00
48208;DHT22;33997;53.278;9.708;2023-08-08T00:46:54;12.60;90.00
48208;DHT22;33997;53.278;9.708;2023-08-08T00:49:20;12.60;90.20
48208;DHT22;33997;53.278;9.708;2023-08-08T00:51:47;12.60;90.40
48208;DHT22;33997;53.278;9.708;2023-08-08T00:54:13;12.50;90.50
48208;DHT22;33997;53.278;9.708;2023-08-08T00:56:38;12.50;90.90
48208;DHT22;33997;53.278;9.708;2023-08-08T00:59:04;12.50;91.00
48208;DHT22;33997;53.278;9.708;2023-08-08T01:01:30;12.50;90.90
48208;DHT22;33997;53.278;9.708;2023-08-08T01:03:56;12.60;90.90
48208;DHT22;33997;53.278;9.708;2023-08-08T01:09:07;12.60;90.90
48208;DHT22;33997;53.278;9.708;2023-08-08T01:11:35;12.70;90.90
48208;DHT22;33997;53.278;9.708;2023-08-08T01:14:02;12.70;90.90
48208;DHT22;33997;53.278;9.708;2023-08-08T01:16:30;12.70;91.10
48208;DHT22;33997;53.278;9.708;2023-08-08T01:18:56;12.70;91.20
48208;DHT22;33997;53.278;9.708;2023-08-08T01:21:23;12.70;91.30
48208;DHT22;33997;53.278;9.708;2023-08-08T01:23:57;12.70;91.20
48208;DHT22;33997;53.278;9.708;2023-08-08T01:26:26;12.70;91.50
48208;DHT22;33997;53.278;9.708;2023-08-08T01:28:53;12.70;92.10
48208;DHT22;33997;53.278;9.708;2023-08-08T01:31:19;12.60;92.80
48208;DHT22;33997;53.278;9.708;2023-08-08T01:33:45;12.50;93.40
48208;DHT22;33997;53.278;9.708;2023-08-08T01:36:22;12.40;94.10
48208;DHT22;33997;53.278;9.708;2023-08-08T01:38:51;12.30;94.40
48208;DHT22;33997;53.278;9.708;2023-08-08T01:41:18;12.30;94.80
48208;DHT22;33997;53.278;9.708;2023-08-08T01:43:44;12.30;95.10
48208;DHT22;33997;53.278;9.708;2023-08-08T01:46:10;12.10;95.70
48208;DHT22;33997;53.278;9.708;2023-08-08T01:48:36;12.10;96.00
48208;DHT22;33997;53.278;9.708;2023-08-08T01:51:01;12.10;96.00
48208;DHT22;33997;53.278;9.708;2023-08-08T01:53:27;12.10;96.30
48208;DHT22;33997;53.278;9.708;2023-08-08T01:55:52;12.00;96.50
48208;DHT22;33997;53.278;9.708;2023-08-08T01:58:18;12.00;96.40
48208;DHT22;33997;53.278;9.708;2023-08-08T02:00:44;12.00;96.60
48208;DHT22;33997;53.278;9.708;2023-08-08T02:03:12;12.00;96.60
48208;DHT22;33997;53.278;9.708;2023-08-08T02:05:37;11.90;96.80
48208;DHT22;33997;53.278;9.708;2023-08-08T02:08:03;12.00;96.80
48208;DHT22;33997;53.278;9.708;2023-08-08T02:10:28;11.90;96.80
48208;DHT22;33997;53.278;9.708;2023-08-08T02:12:54;12.00;96.80
48208;DHT22;33997;53.278;9.708;2023-08-08T02:15:19;11.90;96.60
48208;DHT22;33997;53.278;9.708;2023-08-08T02:17:45;12.00;96.50
48208;DHT22;33997;53.278;9.708;2023-08-08T02:20:11;12.00;96.40
48208;DHT22;33997;53.278;9.708;2023-08-08T02:22:37;12.00;96.10
48208;DHT22;33997;53.278;9.708;2023-08-08T02:25:03;12.00;96.20
48208;DHT22;33997;53.278;9.708;2023-08-08T02:27:29;12.00;96.30
48208;DHT22;33997;53.278;9.708;2023-08-08T02:29:54;12.10;96.30
48208;DHT22;33997;53.278;9.708;2023-08-08T02:32:20;12.00;96.30
48208;DHT22;33997;53.278;9.708;2023-08-08T02:34:45;12.10;96.30
48208;DHT22;33997;53.278;9.708;2023-08-08T02:37:11;12.00;96.40
48208;DHT22;33997;53.278;9.708;2023-08-08T02:39:36;12.10;96.50
48208;DHT22;33997;53.278;9.708;2023-08-08T02:42:02;12.00;96.50
48208;DHT22;33997;53.278;9.708;2023-08-08T02:44:27;12.00;96.60
48208;DHT22;33997;53.278;9.708;2023-08-08T02:46:53;12.00;96.60
48208;DHT22;33997;53.278;9.708;2023-08-08T02:49:18;12.00;96.80
48208;DHT22;33997;53.278;9.708;2023-08-08T02:51:44;12.00;96.70
48208;DHT22;33997;53.278;9.708;2023-08-08T02:54:09;11.90;96.80
48208;DHT22;33997;53.278;9.708;2023-08-08T02:56:35;12.00;96.50
48208;DHT22;33997;53.278;9.708;2023-08-08T02:59:00;12.00;96.60
48208;DHT22;33997;53.278;9.708;2023-08-08T03:01:26;11.90;96.60
48208;DHT22;33997;53.278;9.708;2023-08-08T03:03:51;11.90;96.50
48208;DHT22;33997;53.278;9.708;2023-08-08T03:06:17;11.90;96.30
48208;DHT22;33997;53.278;9.708;2023-08-08T03:08:43;11.90;96.20
48208;DHT22;33997;53.278;9.708;2023-08-08T03:11:08;11.90;96.20
48208;DHT22;33997;53.278;9.708;2023-08-08T03:13:33;12.00;96.00
48208;DHT22;33997;53.278;9.708;2023-08-08T03:15:59;12.00;96.00
48208;DHT22;33997;53.278;9.708;2023-08-08T03:18:24;12.00;96.20
48208;DHT22;33997;53.278;9.708;2023-08-08T03:20:51;12.00;96.20
48208;DHT22;33997;53.278;9.708;2023-08-08T03:23:17;12.10;96.20
48208;DHT22;33997;53.278;9.708;2023-08-08T03:25:42;12.10;96.40
48208;DHT22;33997;53.278;9.708;2023-08-08T03:28:08;12.10;96.40
48208;DHT22;33997;53.278;9.708;2023-08-08T03:30:36;12.10;96.30
48208;DHT22;33997;53.278;9.708;2023-08-08T03:33:03;12.10;96.20
48208;DHT22;33997;53.278;9.708;2023-08-08T03:35:29;12.10;96.20
48208;DHT22;33997;53.278;9.708;2023-08-08T03:37:54;12.10;96.20
48208;DHT22;33997;53.278;9.708;2023-08-08T03:40:19;12.10;96.00
48208;DHT22;33997;53.278;9.708;2023-08-08T03:42:45;12.10;95.90
48208;DHT22;33997;53.278;9.708;2023-08-08T03:45:11;12.10;95.90
48208;DHT22;33997;53.278;9.708;2023-08-08T03:47:36;12.00;95.70
48208;DHT22;33997;53.278;9.708;2023-08-08T03:50:02;12.00;95.80
48208;DHT22;33997;53.278;9.708;2023-08-08T03:52:28;12.10;95.50
48208;DHT22;33997;53.278;9.708;2023-08-08T03:54:53;12.10;95.60
48208;DHT22;33997;53.278;9.708;2023-08-08T03:57:19;12.10;95.60
48208;DHT22;33997;53.278;9.708;2023-08-08T03:59:44;12.10;95.60
48208;DHT22;33997;53.278;9.708;2023-08-08T04:02:10;12.10;95.70
48208;DHT22;33997;53.278;9.708;2023-08-08T04:04:35;12.10;95.70
48208;DHT22;33997;53.278;9.708;2023-08-08T04:07:01;12.20;95.70
48208;DHT22;33997;53.278;9.708;2023-08-08T04:09:26;12.30;95.40
48208;DHT22;33997;53.278;9.708;2023-08-08T04:11:52;12.30;95.40
48208;DHT22;33997;53.278;9.708;2023-08-08T04:14:17;12.40;95.10
48208;DHT22;33997;53.278;9.708;2023-08-08T04:16:43;12.40;94.80
48208;DHT22;33997;53.278;9.708;2023-08-08T04:19:08;12.40;94.90
48208;DHT22;33997;53.278;9.708;2023-08-08T04:21:33;12.40;94.90
48208;DHT22;33997;53.278;9.708;2023-08-08T04:24:00;12.40;95.10
48208;DHT22;33997;53.278;9.708;2023-08-08T04:26:26;12.50;95.10
48208;DHT22;33997;53.278;9.708;2023-08-08T04:28:51;12.50;95.20
48208;DHT22;33997;53.278;9.708;2023-08-08T04:31:17;12.50;95.20
48208;DHT22;33997;53.278;9.708;2023-08-08T04:33:43;12.50;95.10
48208;DHT22;33997;53.278;9.708;2023-08-08T04:36:08;12.60;94.90
48208;DHT22;33997;53.278;9.708;2023-08-08T04:38:33;12.60;94.90
48208;DHT22;33997;53.278;9.708;2023-08-08T04:40:59;12.60;94.70
48208;DHT22;33997;53.278;9.708;2023-08-08T04:43:25;12.70;94.20
48208;DHT22;33997;53.278;9.708;2023-08-08T04:45:53;12.70;94.30
48208;DHT22;33997;53.278;9.708;2023-08-08T04:48:18;12.80;93.70
48208;DHT22;33997;53.278;9.708;2023-08-08T04:50:46;12.70;93.20
48208;DHT22;33997;53.278;9.708;2023-08-08T04:53:11;12.80;93.00
48208;DHT22;33997;53.278;9.708;2023-08-08T04:55:37;12.80;92.80
48208;DHT22;33997;53.278;9.708;2023-08-08T04:58:02;12.80;92.90
48208;DHT22;33997;53.278;9.708;2023-08-08T05:00:28;12.80;93.10
48208;DHT22;33997;53.278;9.708;2023-08-08T05:02:54;12.90;93.20
48208;DHT22;33997;53.278;9.708;2023-08-08T05:05:19;12.90;93.30
48208;DHT22;33997;53.278;9.708;2023-08-08T05:07:44;13.00;93.30
48208;DHT22;33997;53.278;9.708;2023-08-08T05:10:10;13.00;93.20
48208;DHT22;33997;53.278;9.708;2023-08-08T05:12:35;13.10;93.40
48208;DHT22;33997;53.278;9.708;2023-08-08T05:15:01;13.10;93.20
48208;DHT22;33997;53.278;9.708;2023-08-08T05:17:29;13.10;92.80
48208;DHT22;33997;53.278;9.708;2023-08-08T05:19:55;13.20;92.80
48208;DHT22;33997;53.278;9.708;2023-08-08T05:22:20;13.20;93.10
48208;DHT22;33997;53.278;9.708;2023-08-08T05:24:46;13.20;93.30
48208;DHT22;33997;53.278;9.708;2023-08-08T05:27:11;13.20;93.40
48208;DHT22;33997;53.278;9.708;2023-08-08T05:29:37;13.20;93.30
48208;DHT22;33997;53.278;9.708;2023-08-08T05:32:04;13.40;93.30
48208;DHT22;33997;53.278;9.708;2023-08-08T05:34:32;13.40;93.20
48208;DHT22;33997;53.278;9.708;2023-08-08T05:36:57;13.50;93.50
48208;DHT22;33997;53.278;9.708;2023-08-08T05:39:23;13.50;93.50
48208;DHT22;33997;53.278;9.708;2023-08-08T05:41:48;13.50;93.70
48208;DHT22;33997;53.278;9.708;2023-08-08T05:44:14;13.50;93.60
48208;DHT22;33997;53.278;9.708;2023-08-08T05:46:40;13.50;93.70
48208;DHT22;33997;53.278;9.708;2023-08-08T05:49:05;13.60;93.90
48208;DHT22;33997;53.278;9.708;2023-08-08T05:51:32;13.60;93.70
48208;DHT22;33997;53.278;9.708;2023-08-08T05:53:57;13.60;93.60
48208;DHT22;33997;53.278;9.708;2023-08-08T05:56:23;13.50;93.80
48208;DHT22;33997;53.278;9.708;2023-08-08T05:58:48;13.60;93.20
48208;DHT22;33997;53.278;9.708;2023-08-08T06:01:14;13.60;93.20
48208;DHT22;33997;53.278;9.708;2023-08-08T06:03:39;13.70;93.00
48208;DHT22;33997;53.278;9.708;2023-08-08T06:06:05;13.70;92.60
48208;DHT22;33997;53.278;9.708;2023-08-08T06:08:31;13.70;92.50
48208;DHT22;33997;53.278;9.708;2023-08-08T06:10:57;13.80;92.10
48208;DHT22;33997;53.278;9.708;2023-08-08T06:13:23;13.80;92.30
48208;DHT22;33997;53.278;9.708;2023-08-08T06:15:48;14.00;92.40
48208;DHT22;33997;53.278;9.708;2023-08-08T06:18:14;14.10;91.30
48208;DHT22;33997;53.278;9.708;2023-08-08T06:20:39;14.10;91.70
48208;DHT22;33997;53.278;9.708;2023-08-08T06:23:05;14.20;91.50
48208;DHT22;33997;53.278;9.708;2023-08-08T06:25:30;14.10;91.30
48208;DHT22;33997;53.278;9.708;2023-08-08T06:27:56;14.30;90.90
48208;DHT22;33997;53.278;9.708;2023-08-08T06:30:21;14.30;91.50
48208;DHT22;33997;53.278;9.708;2023-08-08T06:32:47;14.50;91.50
48208;DHT22;33997;53.278;9.708;2023-08-08T06:35:12;14.50;91.30
48208;DHT22;33997;53.278;9.708;2023-08-08T06:37:38;14.60;90.40
48208;DHT22;33997;53.278;9.708;2023-08-08T06:40:04;14.80;90.50
48208;DHT22;33997;53.278;9.708;2023-08-08T06:42:30;14.80;90.00
48208;DHT22;33997;53.278;9.708;2023-08-08T06:44:55;14.80;90.30
48208;DHT22;33997;53.278;9.708;2023-08-08T06:47:21;14.80;89.60
48208;DHT22;33997;53.278;9.708;2023-08-08T06:49:46;14.80;89.90
48208;DHT22;33997;53.278;9.708;2023-08-08T06:52:12;15.00;89.90
48208;DHT22;33997;53.278;9.708;2023-08-08T06:54:37;15.10;89.20
48208;DHT22;33997;53.278;9.708;2023-08-08T06:57:03;15.30;88.30
48208;DHT22;33997;53.278;9.708;2023-08-08T06:59:29;15.20;88.00
48208;DHT22;33997;53.278;9.708;2023-08-08T07:01:55;15.30;87.60
48208;DHT22;33997;53.278;9.708;2023-08-08T07:04:21;15.30;87.50
48208;DHT22;33997;53.278;9.708;2023-08-08T07:06:47;15.30;87.10
48208;DHT22;33997;53.278;9.708;2023-08-08T07:09:13;15.30;87.80
48208;DHT22;33997;53.278;9.708;2023-08-08T07:11:40;15.40;88.30
48208;DHT22;33997;53.278;9.708;2023-08-08T07:14:06;15.40;88.00
48208;DHT22;33997;53.278;9.708;2023-08-08T07:16:31;15.30;87.60
48208;DHT22;33997;53.278;9.708;2023-08-08T07:18:57;15.30;88.10
48208;DHT22;33997;53.278;9.708;2023-08-08T07:21:22;15.40;87.60
48208;DHT22;33997;53.278;9.708;2023-08-08T07:23:48;15.30;86.90
48208;DHT22;33997;53.278;9.708;2023-08-08T07:26:13;15.30;87.50
48208;DHT22;33997;53.278;9.708;2023-08-08T07:28:39;15.40;87.20
48208;DHT22;33997;53.278;9.708;2023-08-08T07:31:05;15.50;86.80
48208;DHT22;33997;53.278;9.708;2023-08-08T07:33:30;15.80;86.50
48208;DHT22;33997;53.278;9.708;2023-08-08T07:35:56;15.80;85.70
48208;DHT22;33997;53.278;9.708;2023-08-08T07:38:22;15.80;85.80
48208;DHT22;33997;53.278;9.708;2023-08-08T07:40:47;15.90;85.20
48208;DHT22;33997;53.278;9.708;2023-08-08T07:43:14;16.00;84.40
48208;DHT22;33997;53.278;9.708;2023-08-08T07:45:39;16.20;83.90
48208;DHT22;33997;53.278;9.708;2023-08-08T07:48:05;16.30;83.60
48208;DHT22;33997;53.278;9.708;2023-08-08T07:50:31;16.40;83.70
48208;DHT22;33997;53.278;9.708;2023-08-08T07:52:56;16.50;83.30
48208;DHT22;33997;53.278;9.708;2023-08-08T07:55:22;16.70;82.70
48208;DHT22;33997;53.278;9.708;2023-08-08T07:57:47;16.50;83.00
48208;DHT22;33997;53.278;9.708;2023-08-08T08:00:13;16.30;83.90
48208;DHT22;33997;53.278;9.708;2023-08-08T08:02:40;16.10;83.90
48208;DHT22;33997;53.278;9.708;2023-08-08T08:05:06;16.10;84.20
48208;DHT22;33997;53.278;9.708;2023-08-08T08:07:33;16.00;84.50
48208;DHT22;33997;53.278;9.708;2023-08-08T08:09:59;16.00;84.70
48208;DHT22;33997;53.278;9.708;2023-08-08T08:12:25;16.00;85.00
48208;DHT22;33997;53.278;9.708;2023-08-08T08:14:51;15.80;85.30
48208;DHT22;33997;53.278;9.708;2023-08-08T08:17:16;15.70;85.80
48208;DHT22;33997;53.278;9.708;2023-08-08T08:19:41;15.50;87.90
48208;DHT22;33997;53.278;9.708;2023-08-08T08:22:07;15.20;90.00
48208;DHT22;33997;53.278;9.708;2023-08-08T08:24:32;15.00;90.20
48208;DHT22;33997;53.278;9.708;2023-08-08T08:26:58;15.00;91.10
48208;DHT22;33997;53.278;9.708;2023-08-08T08:29:23;15.00;90.80
48208;DHT22;33997;53.278;9.708;2023-08-08T08:31:49;15.00;90.20
48208;DHT22;33997;53.278;9.708;2023-08-08T08:34:14;14.80;90.10
48208;DHT22;33997;53.278;9.708;2023-08-08T08:36:40;14.80;90.00
48208;DHT22;33997;53.278;9.708;2023-08-08T08:39:05;14.90;89.80
48208;DHT22;33997;53.278;9.708;2023-08-08T08:41:31;15.00;88.40
48208;DHT22;33997;53.278;9.708;2023-08-08T08:44:00;15.10;88.00
48208;DHT22;33997;53.278;9.708;2023-08-08T08:46:26;15.00;87.30
48208;DHT22;33997;53.278;9.708;2023-08-08T08:48:54;15.10;88.70
48208;DHT22;33997;53.278;9.708;2023-08-08T08:51:21;15.10;87.50
48208;DHT22;33997;53.278;9.708;2023-08-08T08:53:47;15.30;87.30
48208;DHT22;33997;53.278;9.708;2023-08-08T08:56:14;15.50;86.40
48208;DHT22;33997;53.278;9.708;2023-08-08T08:58:40;15.70;87.00
48208;DHT22;33997;53.278;9.708;2023-08-08T09:01:07;15.80;85.90
48208;DHT22;33997;53.278;9.708;2023-08-08T09:03:34;16.10;86.00
48208;DHT22;33997;53.278;9.708;2023-08-08T09:06:00;15.90;85.00
48208;DHT22;33997;53.278;9.708;2023-08-08T09:08:26;16.20;84.70
48208;DHT22;33997;53.278;9.708;2023-08-08T09:10:51;16.90;84.00
48208;DHT22;33997;53.278;9.708;2023-08-08T09:13:17;17.40;82.40
48208;DHT22;33997;53.278;9.708;2023-08-08T09:15:42;17.50;82.00
48208;DHT22;33997;53.278;9.708;2023-08-08T09:18:08;17.00;81.70
48208;DHT22;33997;53.278;9.708;2023-08-08T09:20:33;16.90;82.60
48208;DHT22;33997;53.278;9.708;2023-08-08T09:22:59;16.70;82.00
48208;DHT22;33997;53.278;9.708;2023-08-08T09:25:26;16.50;83.40
48208;DHT22;33997;53.278;9.708;2023-08-08T09:27:53;16.30;83.70
48208;DHT22;33997;53.278;9.708;2023-08-08T09:30:19;16.10;84.70
48208;DHT22;33997;53.278;9.708;2023-08-08T09:32:44;15.90;85.80
48208;DHT22;33997;53.278;9.708;2023-08-08T09:35:10;15.60;86.40
48208;DHT22;33997;53.278;9.708;2023-08-08T09:37:37;15.50;86.80
48208;DHT22;33997;53.278;9.708;2023-08-08T09:40:04;15.50;87.10
48208;DHT22;33997;53.278;9.708;2023-08-08T09:42:33;15.50;85.90
48208;DHT22;33997;53.278;9.708;2023-08-08T09:44:59;15.60;86.00
48208;DHT22;33997;53.278;9.708;2023-08-08T09:47:26;15.50;86.10
48208;DHT22;33997;53.278;9.708;2023-08-08T09:50:05;15.50;87.20
48208;DHT22;33997;53.278;9.708;2023-08-08T09:52:33;15.30;87.90
48208;DHT22;33997;53.278;9.708;2023-08-08T09:54:59;15.00;88.40
48208;DHT22;33997;53.278;9.708;2023-08-08T09:57:26;14.30;88.90
48208;DHT22;33997;53.278;9.708;2023-08-08T09:59:52;13.70;91.70
48208;DHT22;33997;53.278;9.708;2023-08-08T10:02:17;13.30;92.70
48208;DHT22;33997;53.278;9.708;2023-08-08T10:04:46;13.10;93.50
48208;DHT22;33997;53.278;9.708;2023-08-08T10:07:11;12.90;94.20
48208;DHT22;33997;53.278;9.708;2023-08-08T10:09:37;12.80;94.60
48208;DHT22;33997;53.278;9.708;2023-08-08T10:12:04;12.70;94.90
48208;DHT22;33997;53.278;9.708;2023-08-08T10:14:32;12.60;95.20
48208;DHT22;33997;53.278;9.708;2023-08-08T10:16:57;12.70;95.40
48208;DHT22;33997;53.278;9.708;2023-08-08T10:19:23;12.70;95.40
48208;DHT22;33997;53.278;9.708;2023-08-08T10:21:57;12.70;95.60
48208;DHT22;33997;53.278;9.708;2023-08-08T10:24:23;12.60;95.80
48208;DHT22;33997;53.278;9.708;2023-08-08T10:26:53;12.80;96.20
48208;DHT22;33997;53.278;9.708;2023-08-08T10:29:19;13.00;96.10
48208;DHT22;33997;53.278;9.708;2023-08-08T10:31:53;13.00;96.00
48208;DHT22;33997;53.278;9.708;2023-08-08T10:34:20;13.00;95.60
48208;DHT22;33997;53.278;9.708;2023-08-08T10:36:51;13.20;96.10
48208;DHT22;33997;53.278;9.708;2023-08-08T10:39:18;13.40;95.80
48208;DHT22;33997;53.278;9.708;2023-08-08T10:41:46;13.60;95.40
48208;DHT22;33997;53.278;9.708;2023-08-08T10:44:12;13.80;94.80
48208;DHT22;33997;53.278;9.708;2023-08-08T10:46:40;14.40;94.40
48208;DHT22;33997;53.278;9.708;2023-08-08T10:49:06;14.90;94.30
48208;DHT22;33997;53.278;9.708;2023-08-08T10:51:38;15.20;93.90
48208;DHT22;33997;53.278;9.708;2023-08-08T10:54:24;15.00;92.90
48208;DHT22;33997;53.278;9.708;2023-08-08T10:56:54;14.80;92.80
48208;DHT22;33997;53.278;9.708;2023-08-08T10:59:22;14.60;92.90
48208;DHT22;33997;53.278;9.708;2023-08-08T11:01:50;14.60;93.30
48208;DHT22;33997;53.278;9.708;2023-08-08T11:04:18;14.80;93.60
48208;DHT22;33997;53.278;9.708;2023-08-08T11:06:44;14.80;92.40
48208;DHT22;33997;53.278;9.708;2023-08-08T11:09:10;15.10;92.70
48208;DHT22;33997;53.278;9.708;2023-08-08T11:11:37;15.20;90.70
48208;DHT22;33997;53.278;9.708;2023-08-08T11:14:14;15.40;91.10
48208;DHT22;33997;53.278;9.708;2023-08-08T11:16:41;15.90;91.50
48208;DHT22;33997;53.278;9.708;2023-08-08T11:19:07;16.40;90.40
48208;DHT22;33997;53.278;9.708;2023-08-08T11:21:50;16.20;89.60
48208;DHT22;33997;53.278;9.708;2023-08-08T11:24:16;16.70;89.00
48208;DHT22;33997;53.278;9.708;2023-08-08T11:26:43;17.10;89.00
48208;DHT22;33997;53.278;9.708;2023-08-08T11:29:10;17.40;88.80
48208;DHT22;33997;53.278;9.708;2023-08-08T11:31:36;17.70;88.10
48208;DHT22;33997;53.278;9.708;2023-08-08T11:34:04;17.70;85.80
48208;DHT22;33997;53.278;9.708;2023-08-08T11:36:31;18.00;85.10
48208;DHT22;33997;53.278;9.708;2023-08-08T11:39:01;18.00;82.50
48208;DHT22;33997;53.278;9.708;2023-08-08T11:41:29;18.00;82.10
48208;DHT22;33997;53.278;9.708;2023-08-08T11:43:55;18.50;80.40
48208;DHT22;33997;53.278;9.708;2023-08-08T11:46:24;18.80;80.10
48208;DHT22;33997;53.278;9.708;2023-08-08T11:48:50;19.00;80.80
48208;DHT22;33997;53.278;9.708;2023-08-08T11:51:16;18.70;79.90
48208;DHT22;33997;53.278;9.708;2023-08-08T11:53:51;18.20;79.50
48208;DHT22;33997;53.278;9.708;2023-08-08T11:56:20;17.80;80.90
48208;DHT22;33997;53.278;9.708;2023-08-08T11:58:50;17.80;81.60
48208;DHT22;33997;53.278;9.708;2023-08-08T12:01:26;17.60;80.70
48208;DHT22;33997;53.278;9.708;2023-08-08T12:03:52;17.60;79.80
48208;DHT22;33997;53.278;9.708;2023-08-08T12:06:19;17.50;79.60
48208;DHT22;33997;53.278;9.708;2023-08-08T12:08:46;17.50;80.00
48208;DHT22;33997;53.278;9.708;2023-08-08T12:11:12;17.40;76.40
48208;DHT22;33997;53.278;9.708;2023-08-08T12:13:42;17.40;78.20
48208;DHT22;33997;53.278;9.708;2023-08-08T12:16:12;17.00;78.30
48208;DHT22;33997;53.278;9.708;2023-08-08T12:18:39;16.90;80.20
48208;DHT22;33997;53.278;9.708;2023-08-08T12:21:05;17.30;81.10
48208;DHT22;33997;53.278;9.708;2023-08-08T12:23:32;17.60;81.20
48208;DHT22;33997;53.278;9.708;2023-08-08T12:25:58;18.30;77.50
48208;DHT22;33997;53.278;9.708;2023-08-08T12:28:24;19.10;76.80
48208;DHT22;33997;53.278;9.708;2023-08-08T12:30:50;18.80;73.20
48208;DHT22;33997;53.278;9.708;2023-08-08T12:33:15;19.50;72.40
48208;DHT22;33997;53.278;9.708;2023-08-08T12:35:41;19.40;72.30
48208;DHT22;33997;53.278;9.708;2023-08-08T12:38:07;18.80;71.70
48208;DHT22;33997;53.278;9.708;2023-08-08T12:40:32;19.20;71.80
48208;DHT22;33997;53.278;9.708;2023-08-08T12:42:59;19.90;70.30
48208;DHT22;33997;53.278;9.708;2023-08-08T12:45:24;19.00;71.40
48208;DHT22;33997;53.278;9.708;2023-08-08T12:47:50;18.50;72.80
48208;DHT22;33997;53.278;9.708;2023-08-08T12:50:15;17.90;75.40
48208;DHT22;33997;53.278;9.708;2023-08-08T12:52:41;17.40;76.20
48208;DHT22;33997;53.278;9.708;2023-08-08T12:55:07;17.30;76.40
48208;DHT22;33997;53.278;9.708;2023-08-08T12:57:33;17.30;76.30
48208;DHT22;33997;53.278;9.708;2023-08-08T12:59:59;17.70;75.70
48208;DHT22;33997;53.278;9.708;2023-08-08T13:02:24;17.60;76.80
48208;DHT22;33997;53.278;9.708;2023-08-08T13:04:49;17.60;75.60
48208;DHT22;33997;53.278;9.708;2023-08-08T13:07:16;17.90;75.90
48208;DHT22;33997;53.278;9.708;2023-08-08T13:09:41;18.80;73.80
48208;DHT22;33997;53.278;9.708;2023-08-08T13:12:07;19.40;73.10
48208;DHT22;33997;53.278;9.708;2023-08-08T13:14:33;20.00;71.00
48208;DHT22;33997;53.278;9.708;2023-08-08T13:16:58;19.90;70.00
48208;DHT22;33997;53.278;9.708;2023-08-08T13:19:24;20.50;67.70
48208;DHT22;33997;53.278;9.708;2023-08-08T13:21:51;20.00;69.30
48208;DHT22;33997;53.278;9.708;2023-08-08T13:24:17;20.50;67.70
48208;DHT22;33997;53.278;9.708;2023-08-08T13:26:43;21.00;66.30
48208;DHT22;33997;53.278;9.708;2023-08-08T13:29:09;19.80;69.30
48208;DHT22;33997;53.278;9.708;2023-08-08T13:31:35;19.20;71.00
48208;DHT22;33997;53.278;9.708;2023-08-08T13:34:00;19.00;73.40
48208;DHT22;33997;53.278;9.708;2023-08-08T13:36:26;19.10;74.50
48208;DHT22;33997;53.278;9.708;2023-08-08T13:38:51;18.60;78.00
48208;DHT22;33997;53.278;9.708;2023-08-08T13:41:16;18.40;79.10
48208;DHT22;33997;53.278;9.708;2023-08-08T13:43:42;17.80;78.10
48208;DHT22;33997;53.278;9.708;2023-08-08T13:46:07;17.40;79.80
48208;DHT22;33997;53.278;9.708;2023-08-08T13:48:35;17.20;80.10
48208;DHT22;33997;53.278;9.708;2023-08-08T13:51:01;17.10;80.60
48208;DHT22;33997;53.278;9.708;2023-08-08T13:53:27;17.20;80.90
48208;DHT22;33997;53.278;9.708;2023-08-08T13:55:52;17.30;81.80
48208;DHT22;33997;53.278;9.708;2023-08-08T13:58:17;17.20;80.70
48208;DHT22;33997;53.278;9.708;2023-08-08T14:00:44;17.00;81.20
48208;DHT22;33997;53.278;9.708;2023-08-08T14:03:09;17.10;81.30
48208;DHT22;33997;53.278;9.708;2023-08-08T14:05:35;17.20;81.10
48208;DHT22;33997;53.278;9.708;2023-08-08T14:08:02;17.20;80.60
48208;DHT22;33997;53.278;9.708;2023-08-08T14:10:28;17.30;81.10
48208;DHT22;33997;53.278;9.708;2023-08-08T14:12:53;17.40;79.30
48208;DHT22;33997;53.278;9.708;2023-08-08T14:15:19;17.40;76.30
48208;DHT22;33997;53.278;9.708;2023-08-08T14:17:44;17.60;71.70
48208;DHT22;33997;53.278;9.708;2023-08-08T14:20:11;17.60;67.70
48208;DHT22;33997;53.278;9.708;2023-08-08T14:22:36;18.10;66.70
48208;DHT22;33997;53.278;9.708;2023-08-08T14:25:02;18.30;66.30
48208;DHT22;33997;53.278;9.708;2023-08-08T14:27:27;18.70;66.60
48208;DHT22;33997;53.278;9.708;2023-08-08T14:29:53;18.50;65.70
48208;DHT22;33997;53.278;9.708;2023-08-08T14:32:18;18.10;72.10
48208;DHT22;33997;53.278;9.708;2023-08-08T14:34:44;17.40;74.80
48208;DHT22;33997;53.278;9.708;2023-08-08T14:37:09;17.00;77.20
48208;DHT22;33997;53.278;9.708;2023-08-08T14:39:36;17.00;78.00
48208;DHT22;33997;53.278;9.708;2023-08-08T14:42:01;16.60;79.00
48208;DHT22;33997;53.278;9.708;2023-08-08T14:44:27;16.50;80.20
48208;DHT22;33997;53.278;9.708;2023-08-08T14:46:52;16.40;80.30
48208;DHT22;33997;53.278;9.708;2023-08-08T14:49:18;16.20;83.70
48208;DHT22;33997;53.278;9.708;2023-08-08T14:51:43;16.80;83.20
48208;DHT22;33997;53.278;9.708;2023-08-08T14:54:09;18.30;79.10
48208;DHT22;33997;53.278;9.708;2023-08-08T14:56:34;18.60;76.40
48208;DHT22;33997;53.278;9.708;2023-08-08T14:59:00;18.20;76.00
48208;DHT22;33997;53.278;9.708;2023-08-08T15:01:26;17.50;78.20
48208;DHT22;33997;53.278;9.708;2023-08-08T15:03:52;18.60;75.30
48208;DHT22;33997;53.278;9.708;2023-08-08T15:06:18;19.00;73.60
48208;DHT22;33997;53.278;9.708;2023-08-08T15:08:44;19.60;72.40
48208;DHT22;33997;53.278;9.708;2023-08-08T15:11:09;20.10;70.80
48208;DHT22;33997;53.278;9.708;2023-08-08T15:13:37;20.30;69.40
48208;DHT22;33997;53.278;9.708;2023-08-08T15:16:02;20.50;69.40
48208;DHT22;33997;53.278;9.708;2023-08-08T15:18:29;21.10;66.80
48208;DHT22;33997;53.278;9.708;2023-08-08T15:20:55;20.50;67.70
48208;DHT22;33997;53.278;9.708;2023-08-08T15:23:20;19.20;70.70
48208;DHT22;33997;53.278;9.708;2023-08-08T15:25:46;19.60;71.50